MAPA DE AEROPUERTO

INFORMACIÓN METAR y TAF

METAR FOR ENVA
ADDS - METARS form results

(1321 UTC 23 October 2021)
Data provider http://aviationweather.gov/metar/data/
 
METAR text: ENVA 231320Z 23014KT 9999 FEW023 BKN031 07/02 Q1017 NOSIG RMK WIND 670FT 23014KT
Conditions at: ENVA (TRONDHEIM/VAERNE, NO) observed 1320 UTC 23 October 2021
Temperature: 7.0°C (45°F)
Dewpoint: 2.0°C (36°F) [RH = 70%]
Pressure (altimeter): 30.03 inches Hg (1017.0 mb)
Winds: from the SW (230 degrees) at 16 MPH (14 knots; 7.2 m/s)
Visibility: 6 or more miles (10+ km)
Ceiling: 3100 feet AGL
Clouds: few clouds at 2300 feet AGL
broken clouds at 3100 feet AGL
Weather: no significant weather observed at this time

METAR text: ENVA 231250Z 25009KT 9999 VCSH BKN030 BKN051 06/02 Q1017 NOSIG RMK WIND 670FT 24012KT
Conditions at: ENVA (TRONDHEIM/VAERNE, NO) observed 1250 UTC 23 October 2021
Temperature: 6.0°C (43°F)
Dewpoint: 2.0°C (36°F) [RH = 75%]
Pressure (altimeter): 30.03 inches Hg (1017.0 mb)
Winds: from the WSW (250 degrees) at 10 MPH (9 knots; 4.6 m/s)
Visibility: 6 or more miles (10+ km)
Ceiling: 3000 feet AGL
Clouds: broken clouds at 3000 feet AGL
broken clouds at 5100 feet AGL
Weather: VCSH  (showers in vicinity)

Forecast for: ENVA (TRONDHEIM/VAERNE, NO)
Text: TAF ENVA 2312/2412 25007KT 9999 FEW015 BKN030
Forecast period: 1200 to 1700 UTC 23 October 2021
Forecast type: FROM: standard forecast or significant change
Winds: from the WSW (250 degrees) at 8 MPH (7 knots; 3.6 m/s)
Visibility: 6 or more miles (10+ km)
Ceiling: 3000 feet AGL
Clouds: few clouds at 1500 feet AGL
broken clouds at 3000 feet AGL
Weather: no significant weather forecast for this period
Text: TEMPO 2312/2315 29015G25KT 4000 SHRAGS BKN018CB
Forecast period: 1200 to 1500 UTC 23 October 2021
Forecast type: TEMPORARY: The following changes expected for less than half the time period
Winds: from the WNW (290 degrees) at 17 MPH (15 knots; 7.7 m/s)
gusting to 29 MPH (25 knots; 12.9 m/s)
Visibility: 2.49 miles (4.01 km)
Ceiling: 1800 feet AGL
Clouds: broken clouds at 1800 feet AGL
Weather: SHRA SHGS  (rain showers, small hail or graupel showers)
Text: BECMG 2317/2319 10010KT
Forecast period: 1700 UTC 23 October 2021 to 1200 UTC 24 October 2021
Forecast type: BECOMING: Conditions expected to become as follows by 1900 UTC 23 October 2021
Winds: from the E (100 degrees) at 12 MPH (10 knots; 5.1 m/s)
Visibility: 6 or more miles (10+ km)
Ceiling: 3000 feet AGL
Clouds: few clouds at 1500 feet AGL
broken clouds at 3000 feet AGL
Weather: no significant weather forecast for this period